Time;durP1;ratioP1;P1;durP2;ratioP2;P2;SDS_P1;SDS_P2;PMS_P1;PMS_P2;Temp;Humidity;BMP_temperature;BMP_pressure;BME280_temperature;BME280_humidity;BME280_pressure;Samples;Min_cycle;Max_cycle;Signal;HPM_P1;HPM_P2
2021/05/07 00:00:58;;;;;;;0.20;0.20;;;8.10;99.90;;;;;;5018959;28;20286;-81
2021/05/07 00:03:24;;;;;;;0.73;0.30;;;8.10;99.90;;;;;;4999337;28;20022;-82
2021/05/07 00:05:55;;;;;;;4.13;0.30;;;8.10;99.90;;;;;;4994993;28;20030;-81
2021/05/07 00:08:29;;;;;;;0.20;0.20;;;8.10;99.90;;;;;;4996749;28;20105;-82
2021/05/07 00:10:56;;;;;;;0.50;0.32;;;8.10;99.90;;;;;;4978150;28;20459;-82
2021/05/07 00:13:22;;;;;;;0.30;0.20;;;8.10;99.90;;;;;;4995726;28;20105;-84
2021/05/07 00:15:48;;;;;;;0.30;0.30;;;8.00;99.90;;;;;;5014410;28;20061;-83
2021/05/07 00:18:14;;;;;;;0.82;0.50;;;8.10;99.90;;;;;;4997669;28;20037;-83
2021/05/07 00:20:40;;;;;;;0.30;0.30;;;8.10;99.90;;;;;;5014323;28;20030;-76
2021/05/07 00:23:06;;;;;;;0.30;0.30;;;8.10;99.90;;;;;;5014947;28;20034;-81
2021/05/07 00:25:32;;;;;;;0.17;0.17;;;8.00;99.90;;;;;;5015516;28;20026;-83
2021/05/07 00:28:06;;;;;;;1.08;0.40;;;8.00;99.90;;;;;;5013159;28;20155;-82
2021/05/07 00:30:33;;;;;;;0.68;0.40;;;8.00;99.90;;;;;;5014981;28;20065;-82
2021/05/07 00:32:59;;;;;;;0.80;0.47;;;8.00;99.90;;;;;;4996930;28;20022;-81
2021/05/07 00:35:26;;;;;;;0.40;0.40;;;8.00;99.90;;;;;;4997136;28;20108;-81
2021/05/07 00:37:52;;;;;;;0.20;0.20;;;8.00;99.90;;;;;;4996633;28;20033;-81
2021/05/07 00:40:19;;;;;;;0.25;0.25;;;8.00;99.90;;;;;;5014718;28;20076;-82
2021/05/07 00:42:44;;;;;;;0.50;0.50;;;8.00;99.90;;;;;;5014237;28;20025;-81
2021/05/07 00:45:12;;;;;;;0.20;0.20;;;8.00;99.90;;;;;;4996696;28;20481;-81
2021/05/07 00:47:44;;;;;;;0.32;0.30;;;8.00;99.90;;;;;;4996745;28;20030;-71
2021/05/07 00:50:11;;;;;;;1.85;0.40;;;8.00;99.90;;;;;;5014681;28;20026;-82
2021/05/07 00:52:37;;;;;;;0.28;0.28;;;8.00;99.90;;;;;;5014439;28;20073;-81
2021/05/07 00:55:07;;;;;;;0.30;0.30;;;8.00;99.90;;;;;;5014110;28;20113;-82
2021/05/07 00:57:35;;;;;;;0.30;0.30;;;8.10;99.90;;;;;;5014643;28;20030;-82
2021/05/07 01:00:01;;;;;;;1.85;0.50;;;8.00;99.90;;;;;;4995911;28;20634;-81
2021/05/07 01:02:27;;;;;;;0.30;0.30;;;8.00;99.90;;;;;;5014163;28;20030;-82
2021/05/07 01:04:53;;;;;;;1.55;0.30;;;8.20;99.90;;;;;;5019827;28;20028;-84
2021/05/07 01:07:19;;;;;;;0.30;0.30;;;8.20;99.90;;;;;;5025349;28;20129;-83
2021/05/07 01:09:48;;;;;;;0.40;0.30;;;8.20;99.90;;;;;;4999784;28;20069;-85
2021/05/07 01:12:20;;;;;;;0.40;0.40;;;8.10;99.90;;;;;;5016730;28;20010;-78
2021/05/07 01:15:04;;;;;;;0.28;0.28;;;8.10;99.90;;;;;;5016598;28;20030;-82
2021/05/07 01:17:31;;;;;;;0.75;0.25;;;8.10;99.90;;;;;;5035927;28;20094;-84
2021/05/07 01:20:04;;;;;;;0.75;0.30;;;8.00;99.90;;;;;;5017143;28;20069;-83
2021/05/07 01:22:30;;;;;;;0.38;0.25;;;8.00;99.90;;;;;;4995178;28;20030;-86
2021/05/07 01:24:56;;;;;;;0.57;0.40;;;8.00;99.90;;;;;;4989380;28;20398;-84
2021/05/07 01:27:21;;;;;;;0.55;0.40;;;8.00;99.90;;;;;;5014009;28;20029;-82
2021/05/07 01:29:47;;;;;;;0.30;0.30;;;7.90;99.90;;;;;;5012868;28;20072;-82
2021/05/07 01:32:13;;;;;;;0.80;0.40;;;7.90;99.90;;;;;;4996022;28;20139;-82
2021/05/07 01:34:38;;;;;;;0.60;0.20;;;7.90;99.90;;;;;;5013254;28;20022;-72
2021/05/07 01:37:04;;;;;;;0.75;0.30;;;7.90;99.90;;;;;;4995356;28;20037;-84
2021/05/07 01:39:30;;;;;;;1.15;0.32;;;7.80;99.90;;;;;;4995900;28;20029;-86
2021/05/07 01:41:55;;;;;;;1.83;0.40;;;7.70;99.90;;;;;;4994952;28;20026;-84
2021/05/07 01:44:21;;;;;;;0.88;0.40;;;7.70;99.90;;;;;;4995929;28;20117;-88
2021/05/07 01:46:47;;;;;;;1.17;0.60;;;7.60;99.90;;;;;;5004232;28;20052;-84
2021/05/07 01:49:12;;;;;;;2.05;0.40;;;7.50;99.90;;;;;;4995882;28;20030;-84
2021/05/07 01:51:38;;;;;;;0.55;0.30;;;7.40;99.90;;;;;;5013237;28;20092;-84
2021/05/07 01:54:04;;;;;;;0.57;0.40;;;7.40;99.90;;;;;;4994228;28;20058;-84
2021/05/07 01:56:30;;;;;;;0.80;0.65;;;7.40;99.90;;;;;;5013452;28;20537;-83
2021/05/07 01:58:55;;;;;;;3.50;0.40;;;7.20;99.90;;;;;;4994779;28;20046;-82
2021/05/07 02:01:22;;;;;;;0.73;0.50;;;7.20;99.90;;;;;;4993542;28;20084;-80
2021/05/07 02:03:49;;;;;;;0.75;0.50;;;7.10;99.90;;;;;;4994366;28;20064;-80
2021/05/07 02:06:15;;;;;;;0.40;0.40;;;7.10;99.90;;;;;;5006767;28;20077;-80
2021/05/07 02:08:41;;;;;;;0.40;0.40;;;7.10;99.90;;;;;;4992978;28;20076;-72
2021/05/07 02:11:07;;;;;;;0.50;0.50;;;7.00;99.90;;;;;;4975521;28;20030;-80
2021/05/07 02:13:32;;;;;;;1.27;0.50;;;7.00;99.90;;;;;;4993250;28;20160;-78
2021/05/07 02:15:58;;;;;;;1.40;0.50;;;6.90;99.90;;;;;;4992588;28;20023;-78
2021/05/07 02:18:25;;;;;;;1.02;0.40;;;6.90;99.90;;;;;;4975524;28;20109;-80
2021/05/07 02:20:53;;;;;;;0.63;0.35;;;6.80;99.90;;;;;;4992447;28;20064;-77
2021/05/07 02:23:20;;;;;;;0.88;0.50;;;6.80;99.90;;;;;;4993066;28;20169;-78
2021/05/07 02:25:46;;;;;;;0.68;0.65;;;6.70;99.90;;;;;;4992199;28;20383;-79
2021/05/07 02:28:11;;;;;;;0.73;0.40;;;6.70;99.90;;;;;;4975709;28;20036;-79
2021/05/07 02:30:37;;;;;;;0.40;0.40;;;6.70;99.90;;;;;;4975446;28;20037;-79
2021/05/07 02:33:04;;;;;;;0.52;0.45;;;6.70;99.90;;;;;;4992068;28;20062;-78
2021/05/07 02:35:30;;;;;;;0.75;0.38;;;6.70;99.90;;;;;;4975567;28;20030;-78
2021/05/07 02:37:56;;;;;;;0.70;0.30;;;6.70;99.90;;;;;;4958867;28;20404;-79
2021/05/07 02:40:22;;;;;;;4.18;0.63;;;6.60;99.90;;;;;;4980295;28;20030;-78
2021/05/07 02:42:47;;;;;;;0.68;0.68;;;6.60;99.90;;;;;;5011160;28;20042;-83
2021/05/07 02:45:14;;;;;;;0.65;0.50;;;6.60;99.90;;;;;;4975691;28;20117;-79
2021/05/07 02:47:41;;;;;;;0.68;0.55;;;6.70;99.90;;;;;;4975270;28;20027;-71
2021/05/07 02:50:09;;;;;;;1.85;0.50;;;6.70;99.90;;;;;;4974155;28;20030;-75
2021/05/07 02:52:35;;;;;;;1.13;0.63;;;6.70;99.90;;;;;;4992460;28;20042;-79
2021/05/07 02:55:02;;;;;;;2.67;1.27;;;6.70;99.90;;;;;;4974317;28;20053;-78
2021/05/07 02:57:27;;;;;;;0.70;0.63;;;6.70;99.90;;;;;;5011137;28;20026;-79
2021/05/07 02:59:53;;;;;;;0.80;0.80;;;6.70;99.90;;;;;;4993570;28;20033;-79
2021/05/07 03:02:19;;;;;;;0.60;0.60;;;6.70;99.90;;;;;;5012167;28;20026;-78
2021/05/07 03:04:45;;;;;;;0.57;0.57;;;6.70;99.90;;;;;;4993344;28;20435;-71
2021/05/07 03:07:10;;;;;;;1.20;0.50;;;6.70;99.90;;;;;;4980464;28;20026;-77
2021/05/07 03:09:36;;;;;;;0.68;0.68;;;6.80;99.90;;;;;;4992227;28;20081;-78
2021/05/07 03:12:02;;;;;;;1.33;1.00;;;6.70;99.90;;;;;;4974123;28;20026;-80
2021/05/07 03:14:28;;;;;;;0.90;0.90;;;6.70;99.90;;;;;;4974907;28;20037;-79
2021/05/07 03:16:53;;;;;;;0.85;0.80;;;6.70;99.90;;;;;;4974239;28;20030;-78
2021/05/07 03:19:19;;;;;;;0.80;0.80;;;6.60;99.90;;;;;;4951295;29;20481;-79
2021/05/07 03:21:46;;;;;;;0.80;0.80;;;6.70;99.90;;;;;;4934577;29;20043;-71
2021/05/07 03:24:13;;;;;;;1.00;0.70;;;6.70;99.90;;;;;;4951228;29;20047;-77
2021/05/07 03:26:40;;;;;;;0.98;0.90;;;6.60;99.90;;;;;;4951206;29;20031;-79
2021/05/07 03:29:06;;;;;;;0.65;0.65;;;6.70;99.90;;;;;;4950552;29;20308;-78
2021/05/07 03:31:34;;;;;;;1.77;0.90;;;6.70;99.90;;;;;;4951366;29;20127;-78
2021/05/07 03:34:00;;;;;;;1.17;1.00;;;6.60;99.90;;;;;;4918863;29;20160;-78
2021/05/07 03:36:25;;;;;;;1.30;0.95;;;6.60;99.90;;;;;;4951069;29;20031;-76
2021/05/07 03:38:51;;;;;;;0.73;0.73;;;6.60;99.90;;;;;;4950388;29;20487;-77
2021/05/07 03:41:17;;;;;;;1.20;1.10;;;6.50;99.90;;;;;;4951450;29;20042;-77
2021/05/07 03:43:42;;;;;;;1.30;1.20;;;6.50;99.90;;;;;;4951066;29;20042;-70
2021/05/07 03:46:08;;;;;;;0.93;0.90;;;6.40;99.90;;;;;;4950649;29;20079;-78
2021/05/07 03:48:33;;;;;;;2.08;1.35;;;6.40;99.90;;;;;;4951150;29;20066;-76
2021/05/07 03:51:00;;;;;;;0.90;0.90;;;6.30;99.90;;;;;;4988376;28;20484;-78
2021/05/07 03:53:25;;;;;;;1.05;1.02;;;6.30;99.90;;;;;;4993599;28;20056;-78
2021/05/07 03:55:51;;;;;;;1.40;1.30;;;6.30;99.90;;;;;;5011306;28;20025;-76
2021/05/07 03:58:17;;;;;;;1.40;1.30;;;6.30;99.90;;;;;;5011840;28;20109;-79
2021/05/07 04:00:44;;;;;;;2.40;1.20;;;6.30;99.90;;;;;;5012782;28;20360;-72
2021/05/07 04:03:11;;;;;;;1.50;1.30;;;6.30;99.90;;;;;;5015224;28;20022;-79
2021/05/07 04:05:36;;;;;;;1.38;1.20;;;6.20;99.90;;;;;;5018747;28;20026;-79
2021/05/07 04:10:35;;;;;;;1.52;1.42;;;6.20;99.90;;;;;;4995904;28;20521;-79
2021/05/07 04:15:26;;;;;;;2.40;1.70;;;6.20;99.90;;;;;;4995837;28;20034;-77
2021/05/07 04:17:52;;;;;;;1.75;1.60;;;6.20;99.90;;;;;;4994704;28;20023;-77
2021/05/07 04:20:17;;;;;;;1.52;1.42;;;6.10;99.90;;;;;;4995125;28;20053;-76
2021/05/07 04:22:43;;;;;;;1.70;1.52;;;6.10;99.90;;;;;;4995118;28;20085;-70
2021/05/07 04:25:10;;;;;;;1.92;1.73;;;6.10;99.90;;;;;;4995269;28;20026;-77
2021/05/07 04:27:36;;;;;;;3.42;1.60;;;6.10;99.90;;;;;;4954174;29;20039;-77
2021/05/07 04:30:04;;;;;;;1.80;1.50;;;6.10;99.90;;;;;;4953446;29;20468;-76
2021/05/07 04:32:30;;;;;;;1.70;1.42;;;6.00;99.90;;;;;;4954262;29;20039;-77
2021/05/07 04:34:55;;;;;;;2.65;1.60;;;6.00;99.90;;;;;;4953385;29;20104;-78
2021/05/07 04:37:21;;;;;;;1.65;1.40;;;6.00;99.90;;;;;;4953900;29;20487;-74
2021/05/07 04:39:47;;;;;;;2.10;1.90;;;5.90;99.90;;;;;;4937422;29;20126;-71
2021/05/07 04:42:13;;;;;;;2.10;1.90;;;5.90;99.90;;;;;;4938071;29;20444;-78
2021/05/07 04:44:41;;;;;;;1.60;1.50;;;5.80;99.90;;;;;;4949187;28;20031;-77
2021/05/07 04:47:06;;;;;;;1.80;1.42;;;5.80;99.90;;;;;;4972409;28;20534;-77
2021/05/07 04:49:32;;;;;;;2.60;1.70;;;5.80;99.90;;;;;;4957293;28;20081;-77
2021/05/07 04:51:58;;;;;;;2.17;1.98;;;5.80;99.90;;;;;;4972200;28;20047;-78
2021/05/07 04:54:25;;;;;;;1.48;1.30;;;5.80;99.90;;;;;;4972870;28;20059;-78
2021/05/07 04:56:51;;;;;;;1.48;1.38;;;5.80;99.90;;;;;;4956188;28;20070;-76
2021/05/07 04:59:17;;;;;;;1.98;1.73;;;5.70;99.90;;;;;;4972990;28;20407;-75
2021/05/07 05:01:42;;;;;;;2.58;1.70;;;5.70;99.90;;;;;;4956641;28;20037;-75
2021/05/07 05:04:10;;;;;;;1.58;1.48;;;5.70;99.90;;;;;;4961667;28;20042;-76
2021/05/07 05:06:37;;;;;;;2.17;1.98;;;5.70;99.90;;;;;;5004979;28;20034;-76
2021/05/07 05:09:06;;;;;;;2.15;1.95;;;5.70;99.90;;;;;;4993745;28;20031;-76
2021/05/07 05:11:34;;;;;;;3.47;2.00;;;5.60;99.90;;;;;;4977163;28;20032;-76
2021/05/07 05:14:02;;;;;;;1.80;1.70;;;5.60;99.90;;;;;;4992980;28;20487;-77
2021/05/07 05:16:30;;;;;;;2.30;2.00;;;5.60;99.90;;;;;;4994290;28;20141;-76
2021/05/07 05:18:59;;;;;;;1.70;1.60;;;5.60;99.90;;;;;;4994505;28;20061;-74
2021/05/07 05:21:27;;;;;;;2.00;1.80;;;5.70;99.90;;;;;;4995196;28;20030;-75
2021/05/07 05:23:56;;;;;;;1.70;1.38;;;5.60;99.90;;;;;;4977676;28;20145;-77
2021/05/07 05:26:24;;;;;;;1.63;1.50;;;5.60;99.90;;;;;;4993960;28;20084;-76
2021/05/07 05:28:50;;;;;;;1.60;1.50;;;5.60;99.90;;;;;;4992642;28;20026;-76
2021/05/07 05:31:18;;;;;;;1.48;1.30;;;5.50;99.90;;;;;;4982268;28;20022;-77
2021/05/07 05:33:46;;;;;;;2.88;1.20;;;5.50;99.90;;;;;;5002786;28;20032;-77
2021/05/07 05:36:14;;;;;;;1.95;1.40;;;5.60;99.90;;;;;;4994707;28;20033;-77
2021/05/07 05:38:43;;;;;;;2.97;1.52;;;5.50;99.90;;;;;;4977448;28;20165;-77
2021/05/07 05:41:11;;;;;;;1.52;1.42;;;5.50;99.90;;;;;;5009770;28;20041;-77
2021/05/07 05:43:40;;;;;;;2.58;2.15;;;5.60;99.90;;;;;;5015750;28;20025;-78
2021/05/07 05:46:08;;;;;;;4.93;2.08;;;5.50;99.90;;;;;;5013493;28;20022;-77
2021/05/07 05:48:37;;;;;;;4.32;2.95;;;5.50;99.90;;;;;;5014678;28;20451;-77
2021/05/07 05:51:05;;;;;;;2.53;2.30;;;5.60;99.90;;;;;;5011993;28;20436;-79
2021/05/07 05:53:33;;;;;;;4.15;2.75;;;5.60;99.90;;;;;;4995546;28;20134;-77
2021/05/07 05:56:01;;;;;;;5.38;2.60;;;5.60;99.90;;;;;;4995411;28;20340;-72
2021/05/07 05:58:32;;;;;;;3.35;3.05;;;5.60;99.90;;;;;;4994556;28;20018;-78
2021/05/07 06:01:01;;;;;;;4.28;3.33;;;5.60;99.90;;;;;;4996078;28;20023;-79
2021/05/07 06:03:29;;;;;;;4.40;2.88;;;5.60;99.90;;;;;;4994998;28;20076;-78
2021/05/07 06:05:57;;;;;;;4.20;3.13;;;5.70;99.90;;;;;;4977332;28;20352;-78
2021/05/07 06:08:25;;;;;;;5.55;3.30;;;5.70;99.90;;;;;;4994038;28;20100;-77
2021/05/07 06:10:52;;;;;;;4.80;3.22;;;5.70;99.90;;;;;;4992626;28;20489;-75
2021/05/07 06:13:17;;;;;;;5.38;4.13;;;5.70;99.90;;;;;;4993700;28;20030;-77
2021/05/07 06:15:45;;;;;;;4.28;3.25;;;5.80;99.90;;;;;;4993842;28;20022;-71
2021/05/07 06:18:13;;;;;;;5.75;3.58;;;5.80;99.90;;;;;;4993057;28;20022;-77
2021/05/07 06:20:42;;;;;;;5.70;3.28;;;5.80;99.90;;;;;;4977587;28;20033;-78
2021/05/07 06:23:10;;;;;;;4.40;3.92;;;6.00;99.90;;;;;;4993341;28;20598;-75
2021/05/07 06:25:39;;;;;;;5.00;4.03;;;6.10;99.90;;;;;;4994207;28;20030;-76
2021/05/07 06:28:06;;;;;;;5.97;3.70;;;6.10;99.90;;;;;;4993233;28;20049;-77
2021/05/07 06:30:34;;;;;;;6.55;4.78;;;6.10;99.90;;;;;;4974789;28;20030;-78
2021/05/07 06:33:02;;;;;;;6.50;4.57;;;6.10;99.90;;;;;;4991809;28;20023;-79
2021/05/07 06:35:29;;;;;;;5.03;4.28;;;6.10;99.90;;;;;;4974873;28;20027;-79
2021/05/07 06:37:59;;;;;;;5.78;4.13;;;6.10;99.90;;;;;;4976715;28;20023;-77
2021/05/07 06:40:27;;;;;;;4.78;4.20;;;6.20;99.90;;;;;;4976504;28;20126;-79
2021/05/07 06:42:55;;;;;;;8.70;5.10;;;6.30;99.90;;;;;;4992624;28;20038;-77
2021/05/07 06:45:23;;;;;;;10.27;4.63;;;6.30;99.90;;;;;;4992327;28;20034;-80
2021/05/07 06:47:51;;;;;;;7.60;5.35;;;6.40;99.90;;;;;;4973037;28;20080;-78
2021/05/07 06:50:21;;;;;;;8.07;4.88;;;6.30;99.90;;;;;;4992656;28;20030;-71
2021/05/07 06:52:49;;;;;;;5.15;4.65;;;6.30;99.90;;;;;;4996922;28;20049;-73
2021/05/07 06:55:17;;;;;;;7.95;5.60;;;6.30;99.90;;;;;;5013492;28;20030;-71
2021/05/07 06:57:46;;;;;;;8.70;5.15;;;6.40;99.90;;;;;;5012741;28;20489;-72
2021/05/07 07:00:13;;;;;;;7.75;5.05;;;6.40;99.90;;;;;;5010539;28;20077;-70
2021/05/07 07:02:44;;;;;;;7.60;5.20;;;6.30;99.90;;;;;;5012781;28;20037;-69
2021/05/07 07:05:14;;;;;;;7.30;5.78;;;6.20;99.90;;;;;;5013889;28;20430;-68
2021/05/07 07:07:42;;;;;;;8.98;6.07;;;6.20;99.90;;;;;;5013507;28;20029;-71
2021/05/07 07:10:11;;;;;;;6.28;5.45;;;6.10;99.90;;;;;;4996332;28;20076;-68
2021/05/07 07:12:40;;;;;;;9.68;5.90;;;6.10;99.90;;;;;;5011094;28;20028;-72
2021/05/07 07:15:08;;;;;;;8.23;6.53;;;6.10;99.90;;;;;;5010343;28;20029;-71
2021/05/07 07:17:37;;;;;;;6.95;5.90;;;6.10;99.90;;;;;;4994930;28;20030;-72
2021/05/07 07:20:04;;;;;;;9.25;6.35;;;6.10;99.90;;;;;;5010780;28;20375;-72
2021/05/07 07:22:32;;;;;;;7.03;6.07;;;6.10;99.90;;;;;;4993114;28;20026;-72
2021/05/07 07:25:00;;;;;;;8.43;6.50;;;6.10;99.90;;;;;;5014012;28;20030;-72
2021/05/07 07:27:27;;;;;;;11.80;7.07;;;6.10;99.90;;;;;;4989443;28;20026;-73
2021/05/07 07:29:55;;;;;;;9.25;6.90;;;6.10;99.90;;;;;;5012653;28;20032;-79
2021/05/07 07:32:23;;;;;;;9.43;7.00;;;6.10;99.90;;;;;;5012995;28;20041;-79
2021/05/07 07:34:54;;;;;;;8.65;6.57;;;6.10;99.90;;;;;;5010696;28;20116;-80
2021/05/07 07:37:23;;;;;;;8.43;6.50;;;6.00;99.90;;;;;;4998759;28;20470;-78
2021/05/07 07:39:51;;;;;;;11.43;6.93;;;6.00;99.90;;;;;;5019293;28;20187;-79
2021/05/07 07:42:19;;;;;;;12.40;6.50;;;6.00;99.90;;;;;;5014832;28;20475;-79
2021/05/07 07:44:47;;;;;;;11.10;6.75;;;6.10;99.90;;;;;;5014538;28;20026;-77
2021/05/07 07:47:14;;;;;;;9.68;6.90;;;6.10;99.90;;;;;;5014315;28;20033;-79
2021/05/07 07:49:39;;;;;;;9.60;6.70;;;6.10;99.90;;;;;;4997808;28;20029;-77
2021/05/07 07:52:09;;;;;;;9.95;6.93;;;6.20;99.90;;;;;;5015623;28;20014;-74
2021/05/07 07:54:36;;;;;;;10.75;7.38;;;6.20;99.90;;;;;;5007613;28;20397;-74
2021/05/07 07:57:06;;;;;;;8.43;6.35;;;6.30;99.90;;;;;;5016020;28;20034;-74
2021/05/07 07:59:35;;;;;;;10.68;6.70;;;6.40;99.90;;;;;;4997907;28;20413;-75
2021/05/07 08:02:05;;;;;;;10.05;5.82;;;6.50;99.90;;;;;;4999235;28;20363;-76
2021/05/07 08:04:33;;;;;;;7.82;6.10;;;6.60;99.90;;;;;;4999170;28;20035;-74
2021/05/07 08:07:02;;;;;;;7.72;6.25;;;6.70;99.90;;;;;;4999064;28;20057;-75
2021/05/07 08:09:28;;;;;;;8.13;6.43;;;6.90;99.90;;;;;;5013638;28;20025;-73
2021/05/07 08:11:55;;;;;;;11.77;7.20;;;7.00;99.90;;;;;;5013960;28;20490;-71
2021/05/07 08:14:22;;;;;;;13.65;6.65;;;7.00;99.90;;;;;;5015289;28;20072;-76
2021/05/07 08:16:49;;;;;;;6.80;6.07;;;7.10;99.90;;;;;;5012720;28;20120;-76
2021/05/07 08:19:17;;;;;;;7.60;5.90;;;7.30;99.90;;;;;;5014280;28;20042;-75
2021/05/07 08:21:45;;;;;;;7.15;5.43;;;7.60;99.90;;;;;;4988049;28;20038;-74
2021/05/07 08:24:12;;;;;;;9.02;4.90;;;7.80;98.10;;;;;;4986322;28;20595;-73
2021/05/07 08:26:40;;;;;;;8.07;5.20;;;7.90;99.90;;;;;;4995703;28;20073;-74
2021/05/07 08:29:08;;;;;;;10.35;6.00;;;8.00;97.70;;;;;;4994603;28;20053;-74
2021/05/07 08:31:35;;;;;;;6.38;4.90;;;8.10;99.50;;;;;;4995635;28;20086;-75
2021/05/07 08:34:02;;;;;;;10.90;5.13;;;8.30;94.20;;;;;;4975769;28;20073;-77
2021/05/07 08:36:30;;;;;;;6.13;4.72;;;8.50;97.70;;;;;;4995745;28;20488;-76
2021/05/07 08:38:56;;;;;;;8.07;4.85;;;8.60;94.40;;;;;;4992628;28;20064;-75
2021/05/07 08:41:22;;;;;;;7.13;5.15;;;8.80;90.70;;;;;;4977278;28;20052;-75
2021/05/07 08:43:51;;;;;;;6.63;4.70;;;8.80;93.60;;;;;;4977458;28;20031;-76
2021/05/07 08:46:18;;;;;;;5.30;4.40;;;8.80;91.70;;;;;;4994132;28;20023;-76
2021/05/07 08:48:44;;;;;;;5.40;3.97;;;8.70;90.40;;;;;;4976578;28;20460;-76
2021/05/07 08:51:11;;;;;;;6.55;4.10;;;8.90;88.40;;;;;;4976527;28;20082;-75
2021/05/07 08:53:38;;;;;;;5.47;3.90;;;9.10;89.50;;;;;;4986362;28;20053;-75
2021/05/07 08:56:05;;;;;;;6.15;4.40;;;9.30;85.80;;;;;;4993350;28;20534;-75
2021/05/07 08:58:31;;;;;;;8.73;3.80;;;9.40;83.50;;;;;;4977382;28;20026;-76
2021/05/07 09:00:58;;;;;;;7.43;4.00;;;9.60;81.60;;;;;;4976591;28;20069;-76
2021/05/07 09:03:24;;;;;;;5.32;3.65;;;9.70;82.40;;;;;;4995012;28;20551;-77
2021/05/07 09:05:50;;;;;;;6.82;3.50;;;9.50;79.10;;;;;;4997267;28;20101;-76
2021/05/07 09:08:16;;;;;;;3.60;3.30;;;9.40;77.60;;;;;;4996058;28;20026;-77
2021/05/07 09:10:46;;;;;;;4.95;3.17;;;9.40;79.50;;;;;;4996573;28;20041;-77
2021/05/07 09:13:19;;;;;;;3.72;3.28;;;9.50;80.20;;;;;;5012809;28;20559;-77
2021/05/07 09:15:46;;;;;;;6.70;3.72;;;9.50;77.50;;;;;;4977998;28;20026;-76
2021/05/07 09:18:14;;;;;;;4.40;3.60;;;9.60;79.40;;;;;;5012879;28;20064;-77
2021/05/07 09:20:41;;;;;;;4.28;2.92;;;9.70;74.10;;;;;;4996183;28;20091;-76
2021/05/07 09:23:12;;;;;;;6.00;3.42;;;9.90;72.80;;;;;;5012908;28;20052;-77
2021/05/07 09:25:40;;;;;;;6.65;3.70;;;10.10;69.40;;;;;;5013494;28;20029;-77
2021/05/07 09:28:14;;;;;;;6.32;3.30;;;10.20;71.70;;;;;;5012744;28;20018;-77
2021/05/07 09:30:41;;;;;;;4.85;3.35;;;10.40;69.80;;;;;;5013863;28;20026;-75
2021/05/07 09:33:12;;;;;;;5.13;3.30;;;10.60;70.20;;;;;;5012999;28;20463;-76
2021/05/07 09:35:39;;;;;;;6.82;4.10;;;10.70;66.50;;;;;;4995555;28;20069;-76
2021/05/07 09:38:06;;;;;;;4.00;3.00;;;10.50;66.00;;;;;;5013550;28;20045;-77
2021/05/07 09:40:32;;;;;;;3.75;3.05;;;10.40;67.40;;;;;;5014372;28;20033;-77
2021/05/07 09:43:06;;;;;;;5.60;3.33;;;10.40;65.40;;;;;;5014812;28;20034;-73
2021/05/07 09:45:33;;;;;;;3.45;3.13;;;10.30;64.40;;;;;;4997609;28;20076;-76
2021/05/07 09:47:59;;;;;;;5.38;3.25;;;10.20;64.50;;;;;;5015070;28;20072;-76
2021/05/07 09:50:40;;;;;;;5.05;3.65;;;10.00;65.00;;;;;;5013497;28;20033;-77
2021/05/07 09:53:11;;;;;;;5.32;3.53;;;9.90;64.70;;;;;;4994904;28;20058;-77
2021/05/07 09:55:39;;;;;;;5.80;4.03;;;9.90;68.50;;;;;;5013127;28;20446;-76
2021/05/07 09:58:05;;;;;;;5.28;3.15;;;10.30;66.80;;;;;;5012148;28;20034;-76
2021/05/07 10:00:31;;;;;;;4.40;3.75;;;10.60;66.10;;;;;;5012563;28;20040;-76
2021/05/07 10:02:57;;;;;;;6.15;3.55;;;11.00;62.30;;;;;;5012609;28;20057;-70
2021/05/07 10:05:24;;;;;;;3.30;2.53;;;11.10;60.00;;;;;;5012380;28;20064;-76
2021/05/07 10:07:50;;;;;;;4.65;3.10;;;11.20;59.00;;;;;;4993922;28;20036;-77
2021/05/07 10:10:17;;;;;;;5.32;3.13;;;11.40;58.60;;;;;;5000727;28;20071;-76
2021/05/07 10:12:45;;;;;;;3.58;3.20;;;11.70;57.90;;;;;;5012909;28;20030;-76
2021/05/07 10:15:11;;;;;;;5.50;3.15;;;11.60;57.10;;;;;;4994626;28;20254;-76
2021/05/07 10:17:48;;;;;;;4.28;2.88;;;11.50;56.90;;;;;;4994678;28;20474;-76
2021/05/07 10:20:43;;;;;;;4.35;2.70;;;11.20;58.00;;;;;;5012257;28;20037;-75
2021/05/07 10:23:18;;;;;;;4.13;2.90;;;11.20;58.50;;;;;;4991327;28;20046;-77
2021/05/07 10:26:02;;;;;;;4.03;2.85;;;11.40;58.70;;;;;;5012787;28;20060;-75
2021/05/07 10:28:43;;;;;;;4.60;3.00;;;11.50;57.90;;;;;;5013286;28;20053;-76
2021/05/07 10:31:10;;;;;;;4.35;2.88;;;11.60;55.20;;;;;;4996729;28;20124;-76
2021/05/07 10:33:36;;;;;;;5.95;2.70;;;11.60;56.50;;;;;;5012372;28;20550;-76
2021/05/07 10:36:03;;;;;;;4.47;2.72;;;11.70;53.30;;;;;;4993678;28;20033;-75
2021/05/07 10:38:30;;;;;;;3.20;2.53;;;11.60;53.30;;;;;;4995063;28;20029;-76
2021/05/07 10:41:08;;;;;;;5.93;3.20;;;11.60;55.20;;;;;;4994589;28;19914;-69
2021/05/07 10:43:42;;;;;;;6.15;2.78;;;11.50;54.80;;;;;;5012304;28;20443;-76
2021/05/07 10:46:24;;;;;;;4.45;2.80;;;11.70;54.00;;;;;;4993563;28;20092;-75
2021/05/07 10:48:54;;;;;;;4.45;2.83;;;12.00;53.20;;;;;;5011957;28;20129;-77
2021/05/07 10:51:22;;;;;;;4.25;3.20;;;12.10;53.30;;;;;;4993827;28;20021;-76
2021/05/07 10:53:49;;;;;;;4.68;3.08;;;11.90;53.20;;;;;;5011761;28;20089;-78
2021/05/07 10:56:19;;;;;;;5.72;3.35;;;11.60;54.30;;;;;;5011593;28;20029;-77
2021/05/07 10:58:46;;;;;;;5.85;3.45;;;11.50;55.20;;;;;;5012089;28;20379;-75
2021/05/07 11:01:30;;;;;;;27.08;7.50;;;11.60;55.30;;;;;;4993840;28;20034;-76
2021/05/07 11:04:15;;;;;;;4.85;3.20;;;11.60;54.00;;;;;;5002237;28;20037;-77
2021/05/07 11:06:44;;;;;;;8.80;3.50;;;11.60;53.60;;;;;;5008833;28;20109;-77
2021/05/07 11:09:21;;;;;;;6.50;2.33;;;11.70;53.80;;;;;;5014592;28;20383;-77
2021/05/07 11:11:49;;;;;;;3.33;2.50;;;11.60;51.60;;;;;;5012769;28;20037;-76
2021/05/07 11:14:20;;;;;;;2.60;2.28;;;11.70;50.90;;;;;;5010615;28;20422;-76
2021/05/07 11:16:47;;;;;;;5.45;2.50;;;11.80;50.60;;;;;;4994338;28;20042;-76
2021/05/07 11:19:32;;;;;;;3.60;2.20;;;12.10;50.50;;;;;;5011189;28;20541;-75
2021/05/07 11:22:04;;;;;;;3.95;2.75;;;12.10;51.10;;;;;;4994031;28;20034;-69
2021/05/07 11:24:41;;;;;;;4.90;2.67;;;12.10;50.50;;;;;;4994225;28;20493;-76
2021/05/07 11:27:23;;;;;;;3.92;2.42;;;12.10;49.30;;;;;;5011232;28;20022;-75
2021/05/07 11:29:50;;;;;;;5.68;2.35;;;12.20;49.90;;;;;;5012204;28;20072;-77
2021/05/07 11:32:23;;;;;;;2.63;1.98;;;12.30;49.60;;;;;;5011428;28;20034;-77
2021/05/07 11:35:01;;;;;;;5.78;2.30;;;12.50;48.80;;;;;;5012347;28;20361;-76
2021/05/07 11:37:28;;;;;;;2.55;2.00;;;12.60;48.50;;;;;;5012224;28;20026;-77
2021/05/07 11:40:00;;;;;;;2.47;2.22;;;12.70;49.50;;;;;;5011976;28;20034;-75
2021/05/07 11:42:37;;;;;;;3.15;2.25;;;12.90;48.80;;;;;;4994387;28;20044;-77
2021/05/07 11:45:09;;;;;;;4.25;2.58;;;12.80;48.10;;;;;;4993299;28;20466;-75
2021/05/07 11:47:36;;;;;;;5.63;2.13;;;12.60;48.50;;;;;;5012830;28;20113;-76
2021/05/07 11:50:06;;;;;;;3.80;2.30;;;12.40;48.90;;;;;;5012008;28;20030;-69
2021/05/07 11:52:43;;;;;;;3.03;2.60;;;12.50;49.60;;;;;;4970413;28;20034;-77
2021/05/07 11:55:11;;;;;;;3.60;2.45;;;12.80;50.20;;;;;;4966118;28;20122;-74
2021/05/07 11:57:38;;;;;;;4.90;2.50;;;13.10;49.60;;;;;;4964853;28;20055;-75
2021/05/07 12:00:05;;;;;;;3.42;2.28;;;13.30;48.60;;;;;;4934449;29;20039;-76
2021/05/07 12:02:32;;;;;;;4.70;2.05;;;13.30;49.40;;;;;;4951020;29;20712;-78
2021/05/07 12:04:58;;;;;;;3.50;2.30;;;13.10;50.00;;;;;;4951533;29;20461;-77
2021/05/07 12:07:36;;;;;;;4.22;2.28;;;13.00;49.70;;;;;;4949364;28;20125;-76
2021/05/07 12:10:03;;;;;;;5.60;2.50;;;13.10;50.20;;;;;;4953611;28;20544;-75
2021/05/07 12:12:42;;;;;;;4.78;2.42;;;13.60;50.70;;;;;;4969860;28;20560;-78
2021/05/07 12:15:12;;;;;;;6.75;2.70;;;14.20;49.30;;;;;;4969604;28;20035;-75
2021/05/07 12:17:42;;;;;;;6.55;2.65;;;14.50;47.70;;;;;;4970696;28;20077;-77
2021/05/07 12:20:10;;;;;;;3.05;2.22;;;14.80;46.80;;;;;;4953378;28;20504;-76
2021/05/07 12:22:36;;;;;;;4.63;2.45;;;14.80;46.20;;;;;;4970870;28;20035;-77
2021/05/07 12:25:16;;;;;;;2.03;1.70;;;14.50;46.90;;;;;;4989439;28;20088;-70
2021/05/07 12:27:43;;;;;;;4.57;2.40;;;14.40;46.10;;;;;;4977544;28;20034;-77
2021/05/07 12:30:22;;;;;;;3.80;2.17;;;14.30;45.10;;;;;;4993611;28;20125;-77
2021/05/07 12:33:04;;;;;;;3.63;2.03;;;13.80;45.50;;;;;;4989542;28;20034;-77
2021/05/07 12:35:41;;;;;;;2.88;1.90;;;13.30;46.60;;;;;;4980728;28;20034;-77
2021/05/07 12:38:33;;;;;;;3.72;1.95;;;13.00;46.60;;;;;;4977722;28;20124;-78
2021/05/07 12:41:03;;;;;;;4.65;1.80;;;12.60;47.30;;;;;;4988743;28;20031;-76
2021/05/07 12:43:34;;;;;;;3.60;1.90;;;12.30;48.70;;;;;;4995260;28;20384;-76
2021/05/07 12:46:00;;;;;;;4.43;2.28;;;12.20;48.90;;;;;;4993155;28;20042;-74
2021/05/07 12:48:26;;;;;;;7.30;2.28;;;12.00;48.80;;;;;;4993199;28;20033;-76
2021/05/07 12:50:52;;;;;;;5.32;2.33;;;11.80;49.00;;;;;;4992888;28;20594;-76
2021/05/07 12:53:19;;;;;;;3.80;2.30;;;12.00;49.20;;;;;;5002212;28;20053;-77
2021/05/07 12:55:45;;;;;;;4.03;2.28;;;12.60;48.30;;;;;;4980341;28;20045;-77
2021/05/07 12:58:11;;;;;;;2.75;1.90;;;13.20;47.10;;;;;;5013425;28;20034;-77
2021/05/07 13:00:39;;;;;;;2.65;1.95;;;13.80;45.10;;;;;;5014469;28;20045;-77
2021/05/07 13:03:04;;;;;;;2.55;1.90;;;14.20;45.50;;;;;;5013292;28;20529;-74